createdAt,value
2019-03-19T00:00:27.872Z,101841.85
2019-03-19T00:02:56.882Z,101847.70
2019-03-19T00:05:25.934Z,101853.21
2019-03-19T00:07:55.029Z,101853.21
2019-03-19T00:10:24.384Z,101857.39
2019-03-19T00:12:53.379Z,101863.73
2019-03-19T00:15:22.441Z,101859.87
2019-03-19T00:17:51.459Z,101872.54
2019-03-19T00:20:20.731Z,101868.27
2019-03-19T00:22:49.796Z,101882.20
2019-03-19T00:25:29.325Z,101884.28
2019-03-19T00:27:49.745Z,101888.07
2019-03-19T00:30:18.945Z,101893.08
2019-03-19T00:32:47.997Z,101895.58
2019-03-19T00:35:17.031Z,101891.30
2019-03-19T00:37:46.040Z,101887.49
2019-03-19T00:40:15.357Z,101889.60
2019-03-19T00:42:44.317Z,101894.66
2019-03-19T00:45:13.582Z,101894.66
2019-03-19T00:47:42.687Z,101897.97
2019-03-19T00:50:11.708Z,101899.65
2019-03-19T00:52:40.778Z,101905.93
2019-03-19T00:55:10.095Z,101913.09
2019-03-19T00:57:39.106Z,101918.14
2019-03-19T01:00:08.848Z,101915.62
2019-03-19T01:02:37.902Z,101925.27
2019-03-19T01:05:07.294Z,101919.38
2019-03-19T01:07:36.268Z,101921.90
2019-03-19T01:10:05.912Z,101928.19
2019-03-19T01:12:34.960Z,101925.63
2019-03-19T01:15:04.574Z,101916.34
2019-03-19T01:17:33.943Z,101917.13
2019-03-19T01:20:02.992Z,101912.03
2019-03-19T01:22:32.001Z,101925.45
2019-03-19T01:25:01.046Z,101919.55
2019-03-19T01:27:29.981Z,101927.06
2019-03-19T01:29:58.959Z,101935.88
2019-03-19T01:32:28.015Z,101940.42
2019-03-19T01:34:57.066Z,101943.36
2019-03-19T01:37:26.115Z,101949.61
2019-03-19T01:39:55.093Z,101947.80
2019-03-19T01:42:24.068Z,101948.27
2019-03-19T01:44:53.126Z,101952.40
2019-03-19T01:47:22.141Z,101950.20
2019-03-19T01:49:51.199Z,101949.77
2019-03-19T01:52:20.188Z,101953.55
2019-03-19T01:54:49.234Z,101950.14
2019-03-19T01:57:18.577Z,101948.50
2019-03-19T01:59:47.508Z,101951.91
2019-03-19T02:02:16.851Z,101955.80
2019-03-19T02:04:45.901Z,101955.45
2019-03-19T02:07:14.949Z,101967.68
2019-03-19T02:09:43.961Z,101970.70
2019-03-19T02:12:12.977Z,101972.43
2019-03-19T02:14:42.030Z,101969.91
2019-03-19T02:17:12.688Z,101971.49
2019-03-19T02:19:42.007Z,101971.00
2019-03-19T02:22:11.013Z,101977.25
2019-03-19T02:24:39.955Z,101982.55
2019-03-19T02:27:09.022Z,101983.16
2019-03-19T02:29:38.284Z,101984.83
2019-03-19T02:32:07.292Z,101976.88
2019-03-19T02:34:36.393Z,101978.55
2019-03-19T02:37:05.381Z,101986.06
2019-03-19T02:39:34.865Z,101986.84
2019-03-19T02:42:04.003Z,101986.81
2019-03-19T02:44:33.045Z,101987.17
2019-03-19T02:47:02.107Z,101982.13
2019-03-19T02:49:31.128Z,101985.49
2019-03-19T02:52:00.161Z,101993.84
2019-03-19T02:54:29.159Z,101998.07
2019-03-19T02:56:58.103Z,102005.54
2019-03-19T02:59:27.079Z,102002.07
2019-03-19T03:01:56.185Z,102010.86
2019-03-19T03:04:25.532Z,102012.91
2019-03-19T03:06:54.854Z,102013.69
2019-03-19T03:09:23.885Z,102010.45
2019-03-19T03:11:52.850Z,102010.08
2019-03-19T03:14:21.910Z,102016.89
2019-03-19T03:16:51.621Z,102020.67
2019-03-19T03:19:20.719Z,102018.69
2019-03-19T03:21:49.731Z,102018.18
2019-03-19T03:24:18.783Z,102027.48
2019-03-19T03:26:48.866Z,102030.03
2019-03-19T03:29:19.678Z,102033.37
2019-03-19T03:31:48.691Z,102029.49
2019-03-19T03:34:17.805Z,102033.14
2019-03-19T03:36:46.726Z,102036.89
2019-03-19T03:39:15.671Z,102041.91
2019-03-19T03:41:44.735Z,102042.14
2019-03-19T03:44:13.877Z,102053.82
2019-03-19T03:46:43.173Z,102056.65
2019-03-19T03:49:12.216Z,102058.28
2019-03-19T03:51:41.271Z,102065.81
2019-03-19T03:54:10.690Z,102071.66
2019-03-19T03:56:39.737Z,102070.55
2019-03-19T03:59:08.759Z,102069.56
2019-03-19T04:01:37.773Z,102067.78
2019-03-19T04:04:06.840Z,102066.89
2019-03-19T04:06:35.866Z,102066.20
2019-03-19T04:09:09.320Z,102076.77
2019-03-19T04:11:37.765Z,102077.58
2019-03-19T04:14:06.782Z,102080.42
2019-03-19T04:16:35.909Z,102085.27
2019-03-19T04:19:05.186Z,102083.77
2019-03-19T04:21:34.241Z,102084.04
2019-03-19T04:24:03.258Z,102083.39
2019-03-19T04:26:32.596Z,102086.63
2019-03-19T04:29:01.612Z,102088.19
2019-03-19T04:31:30.692Z,102092.30
2019-03-19T04:33:59.707Z,102098.86
2019-03-19T04:36:29.069Z,102105.16
2019-03-19T04:38:58.127Z,102107.65
2019-03-19T04:41:27.141Z,102109.31
2019-03-19T04:43:56.212Z,102115.20
2019-03-19T04:46:25.148Z,102118.98
2019-03-19T04:48:54.242Z,102125.40
2019-03-19T04:51:23.254Z,102128.77
2019-03-19T04:53:52.238Z,102131.33
2019-03-19T04:56:21.263Z,102130.52
2019-03-19T04:58:50.575Z,102129.70
2019-03-19T05:01:19.631Z,102129.66
2019-03-19T05:03:48.605Z,102134.73
2019-03-19T05:06:17.592Z,102137.81
2019-03-19T05:08:46.610Z,102147.67
2019-03-19T05:11:15.960Z,102144.92
2019-03-19T05:13:45.300Z,102152.52
2019-03-19T05:16:14.396Z,102160.60
2019-03-19T05:18:43.733Z,102166.16
2019-03-19T05:21:12.729Z,102171.27
2019-03-19T05:23:41.794Z,102176.05
2019-03-19T05:26:10.806Z,102180.31
2019-03-19T05:28:39.833Z,102187.50
2019-03-19T05:31:08.876Z,102184.17
2019-03-19T05:33:37.899Z,102187.61
2019-03-19T05:36:06.939Z,102183.05
2019-03-19T05:38:35.947Z,102192.42
2019-03-19T05:41:05.010Z,102195.73
2019-03-19T05:43:34.062Z,102184.10
2019-03-19T05:46:03.098Z,102187.58
2019-03-19T05:48:32.064Z,102188.84
2019-03-19T05:51:02.688Z,102200.33
2019-03-19T05:53:31.689Z,102197.44
2019-03-19T05:56:00.701Z,102201.86
2019-03-19T05:58:29.666Z,102208.06
2019-03-19T06:00:58.679Z,102212.86
2019-03-19T06:03:27.700Z,102226.05
2019-03-19T06:05:56.714Z,102227.01
2019-03-19T06:08:25.704Z,102224.96
2019-03-19T06:10:56.832Z,102241.78
2019-03-19T06:13:25.810Z,102242.53
2019-03-19T06:15:54.859Z,102242.52
2019-03-19T06:18:34.291Z,102257.22
2019-03-19T06:20:54.585Z,102256.69
2019-03-19T06:23:23.585Z,102265.35
2019-03-19T06:25:52.600Z,102278.46
2019-03-19T06:28:21.714Z,102278.01
2019-03-19T06:30:50.728Z,102284.80
2019-03-19T06:33:19.671Z,102283.47
2019-03-19T06:35:48.650Z,102282.08
2019-03-19T06:38:18.107Z,102285.49
2019-03-19T06:40:47.188Z,102288.01
2019-03-19T06:43:16.135Z,102284.85
2019-03-19T06:45:45.566Z,102301.30
2019-03-19T06:48:14.585Z,102298.91
2019-03-19T06:50:45.442Z,102300.70
2019-03-19T06:53:14.667Z,102301.73
2019-03-19T06:55:43.718Z,102309.59
2019-03-19T06:58:12.675Z,102319.67
2019-03-19T07:00:42.091Z,102316.81
2019-03-19T07:03:11.139Z,102326.69
2019-03-19T07:05:40.158Z,102322.12
2019-03-19T07:08:09.289Z,102329.72
2019-03-19T07:10:38.633Z,102323.77
2019-03-19T07:13:07.616Z,102327.16
2019-03-19T07:15:36.635Z,102330.89
2019-03-19T07:18:05.903Z,102330.45
2019-03-19T07:20:34.922Z,102334.58
2019-03-19T07:23:04.019Z,102318.64
2019-03-19T07:25:33.039Z,102324.75
2019-03-19T07:28:02.090Z,102320.02
2019-03-19T07:30:31.138Z,102317.48
2019-03-19T07:33:00.116Z,102333.06
2019-03-19T07:35:29.170Z,102330.48
2019-03-19T07:37:58.106Z,102336.25
2019-03-19T07:40:27.117Z,102341.55
2019-03-19T07:42:56.239Z,102342.19
2019-03-19T07:45:25.185Z,102338.63
2019-03-19T07:47:54.203Z,102343.72
2019-03-19T07:50:23.417Z,102352.69
2019-03-19T07:52:52.452Z,102359.35
2019-03-19T07:55:21.472Z,102366.39
2019-03-19T07:57:50.510Z,102377.58
2019-03-19T08:00:19.590Z,102381.36
2019-03-19T08:02:48.648Z,102381.31
2019-03-19T08:05:17.758Z,102384.80
2019-03-19T08:07:46.748Z,102394.08
2019-03-19T08:10:15.810Z,102392.50
2019-03-19T08:12:44.827Z,102395.30
2019-03-19T08:15:14.083Z,102393.64
2019-03-19T08:17:43.319Z,102404.22
2019-03-19T08:20:12.525Z,102389.05
2019-03-19T08:22:41.533Z,102407.67
2019-03-19T08:25:10.602Z,102409.18
2019-03-19T08:27:39.675Z,102426.34
2019-03-19T08:30:11.180Z,102428.91
2019-03-19T08:32:40.197Z,102437.92
2019-03-19T08:35:09.349Z,102441.81
2019-03-19T08:37:38.362Z,102445.44
2019-03-19T08:40:08.758Z,102454.48
2019-03-19T08:42:37.788Z,102470.02
2019-03-19T08:45:08.109Z,102472.17
2019-03-19T08:47:38.533Z,102484.22
2019-03-19T08:50:08.962Z,102487.59
2019-03-19T08:52:37.985Z,102490.35
2019-03-19T08:55:07.156Z,102491.30
2019-03-19T08:57:36.133Z,102497.34
2019-03-19T09:00:07.970Z,102494.67
2019-03-19T09:02:37.315Z,102501.64
2019-03-19T09:05:07.632Z,102505.73
2019-03-19T09:07:36.639Z,102520.75
2019-03-19T09:10:06.580Z,102520.27
2019-03-19T09:12:35.574Z,102529.78
2019-03-19T09:15:05.380Z,102535.47
2019-03-19T09:17:34.388Z,102546.44
2019-03-19T09:20:03.496Z,102526.41
2019-03-19T09:22:32.509Z,102536.41
2019-03-19T09:25:01.505Z,102543.12
2019-03-19T09:27:30.560Z,102546.87
2019-03-19T09:29:59.930Z,102560.22
2019-03-19T09:32:28.923Z,102549.70
2019-03-19T09:34:58.002Z,102545.87
2019-03-19T09:37:26.955Z,102554.88
2019-03-19T09:39:56.026Z,102543.94
2019-03-19T09:42:25.040Z,102575.94
2019-03-19T09:44:58.534Z,102572.41
2019-03-19T09:47:24.841Z,102564.09
2019-03-19T09:49:53.848Z,102575.42
2019-03-19T09:52:22.819Z,102577.12
2019-03-19T09:54:51.903Z,102574.58
2019-03-19T09:57:21.015Z,102578.48
2019-03-19T09:59:50.064Z,102590.38
2019-03-19T10:02:19.104Z,102592.77
2019-03-19T10:04:48.074Z,102581.20
2019-03-19T10:07:17.117Z,102593.39
2019-03-19T10:09:46.171Z,102582.94
2019-03-19T10:12:15.216Z,102588.03
2019-03-19T10:14:44.261Z,102596.70
2019-03-19T10:17:13.312Z,102601.18
2019-03-19T10:19:42.324Z,102601.23
2019-03-19T10:22:11.367Z,102609.86
2019-03-19T10:24:40.689Z,102600.88
2019-03-19T10:27:09.720Z,102611.34
2019-03-19T10:29:38.909Z,102618.16
2019-03-19T10:32:07.899Z,102624.11
2019-03-19T10:34:36.945Z,102621.34
2019-03-19T10:37:05.943Z,102636.96
2019-03-19T10:39:34.880Z,102628.11
2019-03-19T10:42:04.019Z,102618.55
2019-03-19T10:44:33.086Z,102626.85
2019-03-19T10:47:02.133Z,102629.08
2019-03-19T10:49:31.175Z,102633.78
2019-03-19T10:52:00.260Z,102635.02
2019-03-19T10:54:29.197Z,102634.14
2019-03-19T10:56:58.208Z,102623.94
2019-03-19T10:59:27.263Z,102616.78
2019-03-19T11:01:56.348Z,102614.52
2019-03-19T11:04:25.337Z,102617.56
2019-03-19T11:06:54.446Z,102629.80
2019-03-19T11:09:23.452Z,102625.20
2019-03-19T11:11:52.492Z,102639.97
2019-03-19T11:14:21.516Z,102638.95
2019-03-19T11:16:50.567Z,102633.57
2019-03-19T11:19:21.231Z,102634.74
2019-03-19T11:21:50.230Z,102641.13
2019-03-19T11:24:19.280Z,102634.98
2019-03-19T11:26:48.299Z,102626.98
2019-03-19T11:29:17.439Z,102619.41
2019-03-19T11:31:46.440Z,102633.76
2019-03-19T11:34:15.458Z,102637.47
2019-03-19T11:36:44.500Z,102641.86
2019-03-19T11:39:13.597Z,102652.52
2019-03-19T11:41:43.014Z,102670.78
2019-03-19T11:44:12.092Z,102662.23
2019-03-19T11:46:41.110Z,102675.92
2019-03-19T11:49:10.149Z,102674.23
2019-03-19T11:51:39.195Z,102674.66
2019-03-19T11:54:08.414Z,102684.41
2019-03-19T11:56:37.416Z,102681.36
2019-03-19T11:59:06.424Z,102669.30
2019-03-19T12:01:35.466Z,102660.16
2019-03-19T12:04:04.539Z,102650.77
2019-03-19T12:06:33.581Z,102645.52
2019-03-19T12:09:02.803Z,102651.39
2019-03-19T12:11:31.842Z,102646.64
2019-03-19T12:14:00.839Z,102636.98
2019-03-19T12:16:30.215Z,102659.16
2019-03-19T12:18:59.096Z,102669.30
2019-03-19T12:21:28.219Z,102670.77
2019-03-19T12:23:57.228Z,102666.57
2019-03-19T12:26:26.292Z,102667.84
2019-03-19T12:28:55.348Z,102678.80
2019-03-19T12:31:24.350Z,102667.02
2019-03-19T12:33:53.372Z,102680.70
2019-03-19T12:36:22.426Z,102686.84
2019-03-19T12:38:51.361Z,102682.69
2019-03-19T12:41:20.379Z,102691.22
2019-03-19T12:43:49.431Z,102712.09
2019-03-19T12:46:18.484Z,102709.97
2019-03-19T12:48:47.548Z,102708.19
2019-03-19T12:51:16.523Z,102719.34
2019-03-19T12:53:45.512Z,102726.51
2019-03-19T12:56:14.522Z,102707.00
2019-03-19T12:58:43.536Z,102713.80
2019-03-19T13:01:13.223Z,102686.02
2019-03-19T13:03:42.403Z,102692.69
2019-03-19T13:06:11.443Z,102703.09
2019-03-19T13:08:40.465Z,102713.77
2019-03-19T13:11:09.440Z,102715.50
2019-03-19T13:13:40.896Z,102717.95
2019-03-19T13:16:10.329Z,102727.19
2019-03-19T13:18:39.648Z,102735.31
2019-03-19T13:21:08.692Z,102724.94
2019-03-19T13:23:37.887Z,102717.50
2019-03-19T13:26:07.215Z,102725.11
2019-03-19T13:28:36.383Z,102751.44
2019-03-19T13:31:05.452Z,102735.67
2019-03-19T13:33:34.505Z,102724.63
2019-03-19T13:36:03.557Z,102719.09
2019-03-19T13:41:12.906Z,102720.62
2019-03-19T13:43:41.911Z,102716.77
2019-03-19T13:46:11.004Z,102713.80
2019-03-19T13:48:40.056Z,102703.16
2019-03-19T13:51:09.335Z,102717.63
2019-03-19T13:53:38.349Z,102722.72
2019-03-19T13:56:09.169Z,102714.19
2019-03-19T13:58:38.325Z,102714.98
2019-03-19T14:01:07.829Z,102727.77
2019-03-19T14:03:36.874Z,102737.95
2019-03-19T14:06:05.887Z,102743.94
2019-03-19T14:08:34.948Z,102750.16
2019-03-19T14:11:03.961Z,102751.69
2019-03-19T14:13:33.012Z,102763.28
2019-03-19T14:16:01.955Z,102748.26
2019-03-19T14:18:31.005Z,102757.64
2019-03-19T14:20:59.947Z,102756.60
2019-03-19T14:23:29.013Z,102747.80
2019-03-19T14:25:58.028Z,102744.78
2019-03-19T14:28:27.095Z,102746.59
2019-03-19T14:31:08.075Z,102736.36
2019-03-19T14:33:27.156Z,102734.66
2019-03-19T14:35:56.452Z,102746.58
2019-03-19T14:38:25.782Z,102732.89
2019-03-19T14:40:54.832Z,102751.55
2019-03-19T14:43:23.884Z,102739.65
2019-03-19T14:45:53.088Z,102747.59
2019-03-19T14:48:22.429Z,102746.19
2019-03-19T14:50:51.428Z,102741.59
2019-03-19T14:53:20.411Z,102743.62
2019-03-19T14:55:49.341Z,102742.06
2019-03-19T14:58:18.794Z,102740.25
2019-03-19T15:00:47.815Z,102748.30
2019-03-19T15:03:17.219Z,102734.92
2019-03-19T15:05:46.262Z,102749.81
2019-03-19T15:08:15.303Z,102743.86
2019-03-19T15:10:44.624Z,102736.80
2019-03-19T15:13:13.679Z,102749.81
2019-03-19T15:15:42.706Z,102758.14
2019-03-19T15:18:11.674Z,102739.02
2019-03-19T15:20:40.693Z,102759.66
2019-03-19T15:23:09.743Z,102731.47
2019-03-19T15:25:38.775Z,102733.22
2019-03-19T15:28:07.684Z,102737.06
2019-03-19T15:30:36.740Z,102731.32
2019-03-19T15:33:05.751Z,102728.13
2019-03-19T15:35:34.701Z,102732.88
2019-03-19T15:38:03.710Z,102727.77
2019-03-19T15:40:32.800Z,102719.20
2019-03-19T15:43:01.805Z,102728.61
2019-03-19T15:45:30.880Z,102732.88
2019-03-19T15:47:59.883Z,102748.09
2019-03-19T15:50:29.044Z,102743.39
2019-03-19T15:52:58.059Z,102739.55
2019-03-19T15:55:27.111Z,102745.84
2019-03-19T15:57:56.141Z,102747.06
2019-03-19T16:00:25.184Z,102745.78
2019-03-19T16:02:54.227Z,102742.76
2019-03-19T16:05:23.273Z,102740.22
2019-03-19T16:07:52.279Z,102749.43
2019-03-19T16:10:21.328Z,102746.00
2019-03-19T16:12:50.482Z,102754.07
2019-03-19T16:15:20.095Z,102754.92
2019-03-19T16:17:49.128Z,102766.29
2019-03-19T16:20:18.155Z,102749.23
2019-03-19T16:22:47.158Z,102750.88
2019-03-19T16:25:16.203Z,102747.83
2019-03-19T16:27:45.246Z,102739.67
2019-03-19T16:30:14.586Z,102753.23
2019-03-19T16:32:43.729Z,102756.81
2019-03-19T16:35:13.058Z,102754.61
2019-03-19T16:37:42.070Z,102759.69
2019-03-19T16:40:13.966Z,102771.07
2019-03-19T16:42:43.011Z,102770.83
2019-03-19T16:45:12.174Z,102766.81
2019-03-19T16:47:41.179Z,102776.30
2019-03-19T16:50:11.500Z,102778.27
2019-03-19T16:52:40.560Z,102784.31
2019-03-19T16:55:10.632Z,102786.80
2019-03-19T16:57:39.648Z,102779.24
2019-03-19T17:00:11.363Z,102783.52
2019-03-19T17:02:40.407Z,102789.77
2019-03-19T17:05:09.431Z,102783.81
2019-03-19T17:07:38.500Z,102795.17
2019-03-19T17:10:09.276Z,102782.77
2019-03-19T17:12:38.245Z,102781.11
2019-03-19T17:15:07.560Z,102778.08
2019-03-19T17:17:36.568Z,102795.92
2019-03-19T17:20:06.562Z,102791.53
2019-03-19T17:22:35.621Z,102791.30
2019-03-19T17:25:05.138Z,102788.21
2019-03-19T17:27:34.171Z,102805.87
2019-03-19T17:30:03.193Z,102794.75
2019-03-19T17:32:32.171Z,102797.48
2019-03-19T17:35:01.186Z,102803.31
2019-03-19T17:37:30.250Z,102804.08
2019-03-19T17:39:59.269Z,102813.16
2019-03-19T17:42:28.993Z,102816.49
2019-03-19T17:44:58.022Z,102820.09
2019-03-19T17:47:27.053Z,102822.84
2019-03-19T17:49:56.522Z,102831.94
2019-03-19T17:52:25.527Z,102826.59
2019-03-19T17:54:54.570Z,102836.58
2019-03-19T17:57:23.621Z,102833.91
2019-03-19T17:59:52.638Z,102827.73
2019-03-19T18:02:24.228Z,102840.69
2019-03-19T18:04:52.761Z,102839.24
2019-03-19T18:07:21.774Z,102841.13
2019-03-19T18:09:50.829Z,102837.11
2019-03-19T18:12:19.855Z,102831.48
2019-03-19T18:14:48.835Z,102837.73
2019-03-19T18:17:17.860Z,102843.37
2019-03-19T18:19:46.995Z,102836.52
2019-03-19T18:22:16.005Z,102840.55
2019-03-19T18:24:44.945Z,102841.29
2019-03-19T18:27:13.845Z,102850.88
2019-03-19T18:29:42.857Z,102850.79
2019-03-19T18:32:11.921Z,102854.42
2019-03-19T18:34:41.032Z,102862.70
2019-03-19T18:37:10.090Z,102865.95
2019-03-19T18:39:39.189Z,102865.83
2019-03-19T18:42:08.121Z,102871.16
2019-03-19T18:44:37.141Z,102874.78
2019-03-19T18:47:06.213Z,102884.93
2019-03-19T18:49:35.231Z,102887.37
2019-03-19T18:52:04.306Z,102883.53
2019-03-19T18:54:33.822Z,102888.95
2019-03-19T18:57:02.933Z,102882.95
2019-03-19T18:59:31.953Z,102888.41
2019-03-19T19:02:01.281Z,102887.91
2019-03-19T19:04:30.332Z,102898.48
2019-03-19T19:06:59.366Z,102899.24
2019-03-19T19:09:28.429Z,102902.98
2019-03-19T19:11:57.425Z,102903.34
2019-03-19T19:14:26.498Z,102904.52
2019-03-19T19:16:55.446Z,102914.63
2019-03-19T19:19:24.454Z,102909.89
2019-03-19T19:21:53.817Z,102918.88
2019-03-19T19:24:22.872Z,102921.80
2019-03-19T19:26:52.223Z,102911.70
2019-03-19T19:29:21.290Z,102913.00
2019-03-19T19:31:50.602Z,102913.00
2019-03-19T19:34:19.613Z,102920.23
2019-03-19T19:36:48.662Z,102924.42
2019-03-19T19:39:17.719Z,102922.66
2019-03-19T19:41:46.741Z,102928.03
2019-03-19T19:44:15.800Z,102922.88
2019-03-19T19:46:44.866Z,102921.12
2019-03-19T19:49:13.925Z,102919.30
2019-03-19T19:51:42.934Z,102928.60
2019-03-19T19:54:12.244Z,102925.63
2019-03-19T19:56:41.296Z,102928.55
2019-03-19T19:59:10.573Z,102931.58
2019-03-19T20:01:39.981Z,102931.63
2019-03-19T20:04:09.034Z,102931.22
2019-03-19T20:06:38.094Z,102929.60
2019-03-19T20:09:08.216Z,102935.11
2019-03-19T20:11:38.640Z,102935.11
2019-03-19T20:14:07.710Z,102934.52
2019-03-19T20:16:36.723Z,102936.18
2019-03-19T20:19:05.805Z,102944.47
2019-03-19T20:21:34.818Z,102938.42
2019-03-19T20:24:03.824Z,102940.39
2019-03-19T20:26:32.891Z,102947.78
2019-03-19T20:29:01.858Z,102942.55
2019-03-19T20:31:30.866Z,102955.94
2019-03-19T20:33:59.846Z,102948.71
2019-03-19T20:36:28.898Z,102947.34
2019-03-19T20:38:57.957Z,102943.86
2019-03-19T20:41:27.003Z,102940.78
2019-03-19T20:43:56.479Z,102946.09
2019-03-19T20:46:25.496Z,102941.24
2019-03-19T20:48:54.606Z,102939.42
2019-03-19T20:51:23.649Z,102945.98
2019-03-19T20:53:52.585Z,102939.92
2019-03-19T20:56:21.663Z,102931.44
2019-03-19T20:58:50.612Z,102935.07
2019-03-19T21:01:19.638Z,102932.84
2019-03-19T21:03:48.630Z,102926.89
2019-03-19T21:06:17.684Z,102929.70
2019-03-19T21:08:46.955Z,102927.19
2019-03-19T21:11:16.169Z,102926.78
2019-03-19T21:13:45.226Z,102918.45
2019-03-19T21:16:16.054Z,102923.45
2019-03-19T21:18:45.755Z,102921.03
2019-03-19T21:21:14.793Z,102926.98
2019-03-19T21:23:44.225Z,102918.72
2019-03-19T21:26:13.241Z,102923.01
2019-03-19T21:28:42.219Z,102932.40
2019-03-19T21:31:11.300Z,102940.94
2019-03-19T21:33:50.781Z,102945.63
2019-03-19T21:36:10.977Z,102943.20
2019-03-19T21:38:40.396Z,102951.74
2019-03-19T21:41:09.405Z,102951.39
2019-03-19T21:43:38.466Z,102951.09
2019-03-19T21:46:07.482Z,102963.36
2019-03-19T21:48:36.442Z,102964.22
2019-03-19T21:51:05.512Z,102955.94
2019-03-19T21:53:34.523Z,102953.05
2019-03-19T21:56:03.582Z,102948.87
2019-03-19T21:58:32.628Z,102947.16
2019-03-19T22:01:01.677Z,102939.38
2019-03-19T22:03:30.734Z,102939.58
2019-03-19T22:06:00.087Z,102946.89
2019-03-19T22:08:29.129Z,102955.22
2019-03-19T22:10:58.147Z,102954.61
2019-03-19T22:13:27.208Z,102955.26
2019-03-19T22:15:56.221Z,102965.09
2019-03-19T22:18:25.281Z,102952.66
2019-03-19T22:20:54.346Z,102953.30
2019-03-19T22:23:25.057Z,102950.53
2019-03-19T22:25:54.114Z,102948.77
2019-03-19T22:28:23.050Z,102946.08
2019-03-19T22:30:52.062Z,102947.23
2019-03-19T22:33:23.207Z,102950.50
2019-03-19T22:35:51.861Z,102959.63
2019-03-19T22:38:20.795Z,102961.58
2019-03-19T22:40:49.776Z,102962.27
2019-03-19T22:43:18.709Z,102960.38
2019-03-19T22:45:47.769Z,102966.97
2019-03-19T22:48:17.132Z,102959.98
2019-03-19T22:50:46.188Z,102959.41
2019-03-19T22:53:15.516Z,102955.86
2019-03-19T22:55:44.565Z,102958.72
2019-03-19T22:58:13.967Z,102951.45
2019-03-19T23:00:45.876Z,102947.21
2019-03-19T23:03:14.947Z,102945.89
2019-03-19T23:05:44.011Z,102940.80
2019-03-19T23:08:13.022Z,102939.88
2019-03-19T23:10:42.044Z,102941.42
2019-03-19T23:13:12.065Z,102927.05
2019-03-19T23:15:41.170Z,102931.57
2019-03-19T23:18:10.207Z,102931.52
2019-03-19T23:20:39.226Z,102921.69
2019-03-19T23:23:08.238Z,102918.65
2019-03-19T23:25:37.294Z,102926.20
2019-03-19T23:28:06.716Z,102919.85
2019-03-19T23:30:35.761Z,102923.57
2019-03-19T23:33:05.828Z,102918.08
2019-03-19T23:35:34.887Z,102929.30
2019-03-19T23:38:04.438Z,102927.11
2019-03-19T23:40:33.451Z,102920.36
2019-03-19T23:43:02.510Z,102937.07
2019-03-19T23:45:31.575Z,102934.44
2019-03-19T23:48:00.589Z,102931.39
2019-03-19T23:50:29.680Z,102925.09
2019-03-19T23:52:58.739Z,102922.58
2019-03-19T23:55:27.675Z,102917.55
2019-03-19T23:57:56.742Z,102920.06
